Kenai Municipal Airport Kenai US
ICAO: PAEN
IATA:
Category: Medium
Scheduled Services:

Elevation: 99 ft
TransAlt. 18000 ft.

Airport Communications:
ATIS:120.3
ANCHORAGE CNTR:125.7
CTAF:121.3
RDO:122.65
GND:121.9
TWEB:117.6
TWR:121.3

PAEN Zoom In..

If you have problems with the map follow the link
https://www.worldairports.se/pages/airport.php?
ICAO=PAEN

Runways:

(A) RW 01L length 7830 ft width 150 ft
---- / hdg 12

(B) RW 01R length 2000 ft width 60 ft
---- / hdg 12

(C) RW 19L length 2000 ft width 60 ft
---- / hdg 192

(D) RW 19R length 7830 ft width 150 ft
ILS 108.90 / hdg 192

Location; PAEN
Day. 20 / Time. 20.53 Zulu
* Altimeter: 30.08
* Temperature: -07° c. -19.4°f.
* Wind from: 020° Speed 06 kn.
Dewpoint: -09° c.
Visibility: 10 Statute Miles.
Clouds: Overcast 5000 ft.

PAEN 202053Z 02006KT 10SM OVC050 M07/M09 A3008 RMK AO2 SLP190 T10721094 56015


Wind From 020°
Speed 06 kn.

 
 
jpsmedia.com for Web Design worldairports.se 2019   terms of use